createdAt,value
2023-03-29T00:00:44.162Z,6.13
2023-03-29T00:03:05.965Z,5.83
2023-03-29T00:05:27.898Z,5.43
2023-03-29T00:07:54.121Z,4.73
2023-03-29T00:10:15.945Z,5.27
2023-03-29T00:12:40.954Z,5.80
2023-03-29T00:15:04.839Z,5.90
2023-03-29T00:17:26.567Z,5.72
2023-03-29T00:19:49.100Z,4.30
2023-03-29T00:22:10.746Z,5.97
2023-03-29T00:24:32.348Z,4.67
2023-03-29T00:26:54.999Z,7.63
2023-03-29T00:29:16.741Z,6.10
2023-03-29T00:31:38.478Z,6.43
2023-03-29T00:34:01.428Z,5.60
2023-03-29T00:36:24.063Z,4.93
2023-03-29T00:38:46.478Z,4.50
2023-03-29T00:41:09.496Z,6.93
2023-03-29T00:43:31.229Z,6.27
2023-03-29T00:45:52.948Z,5.80
2023-03-29T00:48:23.919Z,6.47
2023-03-29T00:51:08.215Z,5.00
2023-03-29T00:53:56.022Z,4.87
2023-03-29T00:56:26.363Z,5.67
2023-03-29T00:59:07.105Z,6.60
2023-03-29T01:01:42.043Z,6.00
2023-03-29T01:04:18.588Z,3.70
2023-03-29T01:06:43.478Z,6.80
2023-03-29T01:09:12.621Z,4.85
2023-03-29T01:11:46.522Z,5.10
2023-03-29T01:14:26.594Z,4.75
2023-03-29T01:16:48.430Z,5.90
2023-03-29T01:19:18.200Z,5.40
2023-03-29T01:21:51.513Z,5.33
2023-03-29T01:24:53.164Z,4.77
2023-03-29T01:27:58.327Z,5.73
2023-03-29T01:30:37.348Z,8.00
2023-03-29T01:33:07.518Z,4.23
2023-03-29T01:35:44.674Z,5.63
2023-03-29T01:38:18.224Z,5.03
2023-03-29T01:40:40.128Z,4.40
2023-03-29T01:43:26.070Z,6.50
2023-03-29T01:46:35.475Z,5.80
2023-03-29T01:49:12.490Z,5.63
2023-03-29T01:51:52.231Z,4.97
2023-03-29T01:54:39.423Z,4.80
2023-03-29T01:57:05.801Z,4.00
2023-03-29T01:59:33.199Z,6.33
2023-03-29T02:02:00.811Z,4.47
2023-03-29T02:04:32.504Z,5.40
2023-03-29T02:06:59.417Z,5.07
2023-03-29T02:09:22.366Z,5.43
2023-03-29T02:11:45.373Z,7.20
2023-03-29T02:14:07.462Z,4.53
2023-03-29T02:16:36.818Z,5.97
2023-03-29T02:18:58.713Z,4.07
2023-03-29T02:21:31.748Z,4.97
2023-03-29T02:23:57.138Z,5.03
2023-03-29T02:26:19.595Z,4.10
2023-03-29T02:28:42.975Z,5.03
2023-03-29T02:31:20.228Z,6.30
2023-03-29T02:34:24.467Z,5.13
2023-03-29T02:36:52.667Z,4.70
2023-03-29T02:39:16.931Z,5.77
2023-03-29T02:41:42.150Z,6.85
2023-03-29T02:44:08.328Z,5.87
2023-03-29T02:46:30.927Z,5.20
2023-03-29T02:48:55.575Z,9.33
2023-03-29T02:51:23.570Z,5.83
2023-03-29T02:53:54.531Z,5.17
2023-03-29T02:56:17.064Z,4.60
2023-03-29T02:58:38.711Z,5.70
2023-03-29T03:01:02.587Z,5.00
2023-03-29T03:03:25.475Z,6.43
2023-03-29T03:05:47.725Z,4.93
2023-03-29T03:08:09.950Z,6.47
2023-03-29T03:10:33.766Z,7.17
2023-03-29T03:12:56.746Z,6.50
2023-03-29T03:15:19.725Z,5.47
2023-03-29T03:17:41.650Z,4.50
2023-03-29T03:20:04.658Z,6.97
2023-03-29T03:22:26.474Z,6.17
2023-03-29T03:24:49.313Z,4.77
2023-03-29T03:27:11.790Z,5.07
2023-03-29T03:29:33.539Z,6.40
2023-03-29T03:32:13.853Z,6.00
2023-03-29T03:34:56.012Z,4.43
2023-03-29T03:37:20.704Z,5.87
2023-03-29T03:39:42.317Z,6.47
2023-03-29T03:42:08.223Z,6.90
2023-03-29T03:44:33.970Z,5.87
2023-03-29T03:47:14.602Z,7.13
2023-03-29T03:49:37.495Z,6.47
2023-03-29T03:51:59.877Z,5.67
2023-03-29T03:54:21.703Z,8.17
2023-03-29T03:57:22.861Z,5.00
2023-03-29T03:59:46.574Z,6.50
2023-03-29T04:02:13.477Z,4.77
2023-03-29T04:04:35.281Z,6.30
2023-03-29T04:07:14.337Z,6.30
2023-03-29T04:09:59.473Z,5.93
2023-03-29T04:12:39.771Z,5.77
2023-03-29T04:15:03.610Z,5.57
2023-03-29T04:17:25.672Z,7.10
2023-03-29T04:19:53.277Z,5.47
2023-03-29T04:22:14.967Z,6.53
2023-03-29T04:24:37.580Z,5.10
2023-03-29T04:27:25.600Z,6.07
2023-03-29T04:29:48.890Z,4.87
2023-03-29T04:32:21.100Z,4.23
2023-03-29T04:34:56.527Z,5.63
2023-03-29T04:37:21.989Z,5.07
2023-03-29T04:39:46.510Z,5.70
2023-03-29T04:42:09.378Z,5.40
2023-03-29T04:44:33.626Z,5.50
2023-03-29T04:46:55.928Z,4.10
2023-03-29T04:49:37.733Z,5.83
2023-03-29T04:52:04.053Z,6.70
2023-03-29T04:54:26.372Z,5.27
2023-03-29T04:56:56.804Z,5.00
2023-03-29T04:59:29.140Z,4.17
2023-03-29T05:01:51.173Z,4.80
2023-03-29T05:04:14.122Z,5.60
2023-03-29T05:06:46.854Z,7.47
2023-03-29T05:09:08.834Z,7.13
2023-03-29T05:11:40.927Z,5.03
2023-03-29T05:14:03.407Z,3.90
2023-03-29T05:16:30.174Z,5.83
2023-03-29T05:21:14.745Z,5.93
2023-03-29T05:26:20.325Z,4.80
2023-03-29T05:28:46.005Z,5.27
2023-03-29T05:31:08.563Z,6.07
2023-03-29T05:33:33.713Z,5.67
2023-03-29T05:36:05.382Z,6.30
2023-03-29T05:38:29.748Z,4.93
2023-03-29T05:40:52.894Z,5.07
2023-03-29T05:43:47.710Z,6.70
2023-03-29T05:46:12.608Z,5.10
2023-03-29T05:48:42.751Z,9.83
2023-03-29T05:51:05.462Z,4.43
2023-03-29T05:53:28.317Z,4.17
2023-03-29T05:55:51.305Z,4.70
2023-03-29T05:58:18.094Z,3.73
2023-03-29T06:00:41.300Z,4.33
2023-03-29T06:03:25.461Z,6.87
2023-03-29T06:05:57.456Z,5.23
2023-03-29T06:08:19.375Z,6.80
2023-03-29T06:11:06.132Z,4.47
2023-03-29T06:14:04.139Z,5.77
2023-03-29T06:16:26.614Z,8.73
2023-03-29T06:18:48.722Z,5.77
2023-03-29T06:21:10.759Z,5.33
2023-03-29T06:23:33.189Z,5.43
2023-03-29T06:25:55.509Z,7.47
2023-03-29T06:28:19.196Z,4.57
2023-03-29T06:30:42.053Z,5.22
2023-03-29T06:33:07.055Z,5.87
2023-03-29T06:35:46.983Z,4.63
2023-03-29T06:38:12.012Z,6.87
2023-03-29T06:40:59.736Z,4.90
2023-03-29T06:43:22.980Z,4.83
2023-03-29T06:45:54.428Z,5.67
2023-03-29T06:48:36.661Z,4.93
2023-03-29T06:50:59.230Z,6.73
2023-03-29T06:53:23.874Z,5.10
2023-03-29T06:55:53.997Z,8.37
2023-03-29T06:58:45.136Z,6.43
2023-03-29T07:01:27.128Z,8.03
2023-03-29T07:03:54.784Z,5.87
2023-03-29T07:06:24.811Z,7.00
2023-03-29T07:08:51.842Z,5.50
2023-03-29T07:11:26.155Z,5.47
2023-03-29T07:13:51.213Z,4.73
2023-03-29T07:16:14.910Z,7.93
2023-03-29T07:18:51.245Z,6.70
2023-03-29T07:21:38.040Z,6.07
2023-03-29T07:24:00.305Z,5.80
2023-03-29T07:26:28.299Z,7.97
2023-03-29T07:28:51.759Z,6.20
2023-03-29T07:31:13.486Z,5.27
2023-03-29T07:33:40.891Z,7.63
2023-03-29T07:36:06.034Z,7.37
2023-03-29T07:38:29.905Z,5.90
2023-03-29T07:41:12.329Z,7.10
2023-03-29T07:43:41.733Z,7.97
2023-03-29T07:46:06.557Z,4.93
2023-03-29T07:48:30.314Z,6.27
2023-03-29T07:50:55.991Z,5.13
2023-03-29T07:53:23.535Z,7.33
2023-03-29T07:55:49.824Z,7.00
2023-03-29T07:58:43.623Z,7.55
2023-03-29T08:01:08.362Z,7.37
2023-03-29T08:03:56.011Z,7.60
2023-03-29T08:06:30.937Z,7.30
2023-03-29T08:08:52.737Z,5.57
2023-03-29T08:11:15.247Z,7.40
2023-03-29T08:13:52.052Z,6.70
2023-03-29T08:16:36.913Z,6.38
2023-03-29T08:19:07.160Z,6.90
2023-03-29T08:21:43.582Z,8.57
2023-03-29T08:24:06.159Z,7.17
2023-03-29T08:26:41.912Z,7.30
2023-03-29T08:29:04.010Z,7.70
2023-03-29T08:31:26.118Z,7.60
2023-03-29T08:33:47.993Z,6.27
2023-03-29T08:36:40.474Z,6.63
2023-03-29T08:39:22.694Z,7.37
2023-03-29T08:42:30.463Z,8.83
2023-03-29T08:45:14.068Z,6.97
2023-03-29T08:47:51.439Z,6.23
2023-03-29T08:50:15.809Z,10.83
2023-03-29T08:52:51.675Z,8.33
2023-03-29T08:55:42.701Z,7.37
2023-03-29T08:58:34.762Z,7.17
2023-03-29T09:01:00.854Z,7.17
2023-03-29T09:04:09.034Z,10.77
2023-03-29T09:06:43.131Z,9.23
2023-03-29T09:09:19.812Z,9.17
2023-03-29T09:12:12.391Z,6.27
2023-03-29T09:14:52.571Z,10.50
2023-03-29T09:17:39.118Z,9.60
2023-03-29T09:20:18.988Z,10.13
2023-03-29T09:23:07.221Z,11.13
2023-03-29T09:26:06.759Z,9.20
2023-03-29T09:29:19.836Z,7.73
2023-03-29T09:31:44.791Z,9.63
2023-03-29T09:34:23.014Z,10.93
2023-03-29T09:37:15.778Z,11.80
2023-03-29T09:39:40.943Z,11.53
2023-03-29T09:42:09.373Z,9.00
2023-03-29T09:44:40.137Z,8.43
2023-03-29T09:47:23.310Z,10.70
2023-03-29T09:49:52.229Z,11.23
2023-03-29T09:52:18.209Z,11.37
2023-03-29T09:54:49.577Z,8.30
2023-03-29T09:57:47.177Z,8.67
2023-03-29T10:00:13.909Z,9.53
2023-03-29T10:02:36.169Z,11.20
2023-03-29T10:05:01.044Z,10.90
2023-03-29T10:07:23.900Z,8.55
2023-03-29T10:09:58.867Z,7.80
2023-03-29T10:12:21.469Z,8.37
2023-03-29T10:14:50.290Z,8.20
2023-03-29T10:17:28.008Z,10.47
2023-03-29T10:20:05.633Z,8.33
2023-03-29T10:22:37.862Z,9.53
2023-03-29T10:25:00.203Z,10.23
2023-03-29T10:27:34.863Z,9.27
2023-03-29T10:30:13.076Z,10.00
2023-03-29T10:32:37.772Z,8.77
2023-03-29T10:35:35.477Z,10.77
2023-03-29T10:38:00.489Z,10.18
2023-03-29T10:40:30.908Z,8.67
2023-03-29T10:42:57.657Z,9.73
2023-03-29T10:45:41.472Z,10.87
2023-03-29T10:48:06.937Z,10.80
2023-03-29T10:50:37.056Z,11.27
2023-03-29T10:52:59.092Z,14.30
2023-03-29T10:55:26.276Z,11.67
2023-03-29T10:58:25.254Z,10.43
2023-03-29T11:00:56.303Z,11.13
2023-03-29T11:03:40.575Z,10.37
2023-03-29T11:06:12.676Z,9.90
2023-03-29T11:09:01.539Z,11.67
2023-03-29T11:11:48.975Z,10.93
2023-03-29T11:14:33.036Z,12.00
2023-03-29T11:17:20.743Z,15.27
2023-03-29T11:20:12.502Z,12.77
2023-03-29T11:22:47.659Z,10.37
2023-03-29T11:25:46.718Z,10.90
2023-03-29T11:28:38.962Z,11.53
2023-03-29T11:31:38.572Z,11.60
2023-03-29T11:34:42.154Z,10.13
2023-03-29T11:37:11.246Z,9.83
2023-03-29T11:40:07.553Z,11.27
2023-03-29T11:42:35.011Z,9.97
2023-03-29T11:45:01.767Z,10.83
2023-03-29T11:47:37.111Z,9.07
2023-03-29T11:50:23.578Z,9.40
2023-03-29T11:52:51.421Z,10.20
2023-03-29T11:55:28.727Z,10.67
2023-03-29T11:58:05.715Z,10.03
2023-03-29T12:00:51.951Z,9.50
2023-03-29T12:03:44.769Z,9.53
2023-03-29T12:06:23.743Z,11.77
2023-03-29T12:09:01.280Z,11.40
2023-03-29T12:11:29.577Z,11.23
2023-03-29T12:13:59.847Z,10.03
2023-03-29T12:16:34.333Z,8.50
2023-03-29T12:19:01.363Z,6.93
2023-03-29T12:21:28.623Z,7.70
2023-03-29T12:23:51.824Z,10.93
2023-03-29T12:26:58.531Z,8.73
2023-03-29T12:30:03.689Z,7.80
2023-03-29T12:32:37.136Z,7.97
2023-03-29T12:35:55.703Z,10.23
2023-03-29T12:41:38.228Z,10.83
2023-03-29T12:44:24.570Z,8.93
2023-03-29T12:46:54.689Z,8.43
2023-03-29T12:49:35.943Z,9.73
2023-03-29T12:52:02.836Z,9.43
2023-03-29T12:54:30.703Z,8.33
2023-03-29T12:56:52.390Z,10.93
2023-03-29T12:59:46.820Z,11.27
2023-03-29T13:02:14.662Z,12.60
2023-03-29T13:04:58.714Z,11.50
2023-03-29T13:07:23.647Z,8.57
2023-03-29T13:10:08.234Z,8.47
2023-03-29T13:12:49.517Z,9.88
2023-03-29T13:15:14.380Z,7.87
2023-03-29T13:18:14.187Z,9.20
2023-03-29T13:20:53.310Z,7.90
2023-03-29T13:23:48.683Z,7.00
2023-03-29T13:26:34.259Z,6.82
2023-03-29T13:29:38.722Z,8.80
2023-03-29T13:32:43.571Z,7.67
2023-03-29T13:35:17.106Z,6.33
2023-03-29T13:38:19.732Z,7.43
2023-03-29T13:40:47.641Z,6.77
2023-03-29T13:43:21.649Z,10.13
2023-03-29T13:45:43.329Z,7.05
2023-03-29T13:48:24.716Z,7.30
2023-03-29T13:51:04.990Z,6.40
2023-03-29T13:53:55.102Z,7.97
2023-03-29T13:56:25.054Z,6.80
2023-03-29T13:59:05.635Z,6.60
2023-03-29T14:01:38.892Z,5.53
2023-03-29T14:04:01.798Z,5.73
2023-03-29T14:06:31.282Z,7.33
2023-03-29T14:08:53.841Z,5.73
2023-03-29T14:11:24.903Z,6.10
2023-03-29T14:13:47.383Z,5.03
2023-03-29T14:16:12.076Z,5.10
2023-03-29T14:18:40.281Z,4.80
2023-03-29T14:21:02.047Z,4.20
2023-03-29T14:23:30.095Z,5.23
2023-03-29T14:25:52.069Z,5.17
2023-03-29T14:28:28.866Z,5.77
2023-03-29T14:30:52.798Z,5.47
2023-03-29T14:33:14.840Z,3.47
2023-03-29T14:35:36.955Z,5.33
2023-03-29T14:38:00.613Z,5.63
2023-03-29T14:40:22.869Z,4.40
2023-03-29T14:42:47.453Z,4.83
2023-03-29T14:47:36.841Z,4.57
2023-03-29T14:50:01.763Z,5.33
2023-03-29T14:52:24.250Z,3.57
2023-03-29T14:54:51.965Z,6.53
2023-03-29T14:57:18.599Z,4.23
2023-03-29T14:59:48.519Z,5.30
2023-03-29T15:02:33.236Z,6.50
2023-03-29T15:05:07.637Z,5.05
2023-03-29T15:07:30.352Z,4.80
2023-03-29T15:09:52.227Z,6.37
2023-03-29T15:12:16.738Z,5.93
2023-03-29T15:17:22.615Z,7.97
2023-03-29T15:19:44.338Z,5.90
2023-03-29T15:22:11.313Z,6.90
2023-03-29T15:24:33.963Z,7.30
2023-03-29T15:27:03.551Z,5.53
2023-03-29T15:29:38.488Z,4.73
2023-03-29T15:34:29.324Z,7.70
2023-03-29T15:36:52.066Z,6.20
2023-03-29T15:39:20.074Z,5.37
2023-03-29T15:41:43.418Z,6.00
2023-03-29T15:44:05.673Z,5.07
2023-03-29T15:46:27.486Z,5.53
2023-03-29T15:48:49.321Z,5.00
2023-03-29T15:51:13.142Z,6.33
2023-03-29T15:53:35.898Z,6.10
2023-03-29T15:56:02.418Z,5.97
2023-03-29T15:58:30.754Z,4.03
2023-03-29T16:01:02.619Z,5.03
2023-03-29T16:03:27.532Z,5.60
2023-03-29T16:05:49.645Z,4.90
2023-03-29T16:08:12.732Z,4.93
2023-03-29T16:10:34.618Z,3.60
2023-03-29T16:12:57.286Z,6.50
2023-03-29T16:15:24.426Z,5.10
2023-03-29T16:17:46.318Z,3.30
2023-03-29T16:20:10.255Z,5.17
2023-03-29T16:22:32.286Z,4.18
2023-03-29T16:24:54.007Z,3.37
2023-03-29T16:27:16.955Z,5.07
2023-03-29T16:29:38.762Z,4.67
2023-03-29T16:32:01.044Z,6.23
2023-03-29T16:34:23.365Z,5.70
2023-03-29T16:36:47.915Z,4.70
